createdAt,value
2023-05-25T00:02:40.561Z,7.13
2023-05-25T00:05:44.160Z,7.00
2023-05-25T00:08:48.596Z,6.10
2023-05-25T00:11:52.584Z,7.87
2023-05-25T00:14:57.166Z,8.67
2023-05-25T00:18:01.056Z,8.03
2023-05-25T00:21:06.612Z,7.40
2023-05-25T00:24:10.924Z,7.87
2023-05-25T00:27:14.091Z,9.23
2023-05-25T00:30:18.534Z,8.23
2023-05-25T00:33:21.728Z,7.33
2023-05-25T00:36:26.076Z,8.23
2023-05-25T00:39:29.293Z,7.70
2023-05-25T00:42:33.480Z,7.77
2023-05-25T00:45:38.036Z,9.27
2023-05-25T00:48:41.281Z,7.33
2023-05-25T00:51:46.666Z,9.53
2023-05-25T00:54:55.283Z,8.73
2023-05-25T00:58:01.813Z,7.80
2023-05-25T01:01:11.870Z,9.83
2023-05-25T01:04:17.160Z,6.80
2023-05-25T01:07:25.345Z,8.10
2023-05-25T01:10:31.845Z,8.50
2023-05-25T01:13:38.276Z,8.93
2023-05-25T01:16:44.027Z,8.87
2023-05-25T01:19:54.809Z,7.60
2023-05-25T01:23:12.179Z,8.57
2023-05-25T01:26:18.937Z,8.30
2023-05-25T01:29:24.126Z,9.17
2023-05-25T01:32:28.877Z,8.73
2023-05-25T01:35:33.025Z,9.77
2023-05-25T01:38:38.896Z,9.70
2023-05-25T01:41:42.027Z,8.90
2023-05-25T01:44:46.023Z,9.30
2023-05-25T01:47:58.774Z,10.00
2023-05-25T01:51:07.314Z,9.00
2023-05-25T01:54:19.117Z,8.80
2023-05-25T01:57:23.364Z,9.37
2023-05-25T02:00:31.418Z,12.30
2023-05-25T02:03:34.659Z,11.10
2023-05-25T02:06:38.141Z,10.63
2023-05-25T02:09:42.779Z,11.83
2023-05-25T02:12:45.906Z,13.30
2023-05-25T02:15:49.070Z,12.23
2023-05-25T02:18:52.308Z,12.33
2023-05-25T02:21:55.494Z,10.63
2023-05-25T02:25:00.051Z,10.57
2023-05-25T02:28:03.190Z,12.23
2023-05-25T02:31:09.112Z,11.83
2023-05-25T02:34:13.876Z,16.90
2023-05-25T02:37:17.021Z,12.80
2023-05-25T02:40:21.584Z,10.77
2023-05-25T02:43:24.757Z,11.63
2023-05-25T02:46:27.975Z,10.23
2023-05-25T02:49:34.447Z,12.70
2023-05-25T02:52:37.713Z,10.23
2023-05-25T02:55:43.691Z,11.57
2023-05-25T02:58:46.928Z,9.30
2023-05-25T03:01:50.017Z,9.33
2023-05-25T03:04:53.983Z,8.60
2023-05-25T03:07:57.212Z,8.20
2023-05-25T03:11:01.791Z,7.43
2023-05-25T03:14:04.994Z,6.73
2023-05-25T03:17:08.208Z,7.53
2023-05-25T03:20:12.590Z,6.70
2023-05-25T03:23:15.830Z,6.80
2023-05-25T03:26:20.463Z,7.93
2023-05-25T03:29:23.602Z,5.83
2023-05-25T03:32:26.735Z,7.43
2023-05-25T03:35:29.909Z,7.30
2023-05-25T03:38:32.918Z,7.43
2023-05-25T03:41:37.412Z,6.60
2023-05-25T03:44:41.309Z,6.90
2023-05-25T03:47:45.608Z,7.47
2023-05-25T03:50:48.767Z,7.23
2023-05-25T03:53:51.839Z,6.47
2023-05-25T03:56:56.846Z,6.03
2023-05-25T04:00:00.043Z,6.63
2023-05-25T04:03:03.327Z,5.70
2023-05-25T04:06:06.713Z,6.80
2023-05-25T04:09:10.092Z,7.17
2023-05-25T04:12:14.531Z,6.80
2023-05-25T04:15:17.921Z,4.90
2023-05-25T04:18:21.154Z,7.10
2023-05-25T04:21:24.405Z,6.77
2023-05-25T04:24:27.637Z,7.73
2023-05-25T04:27:33.029Z,8.07
2023-05-25T04:30:36.743Z,8.60
2023-05-25T04:33:40.799Z,7.90
2023-05-25T04:36:44.864Z,9.00
2023-05-25T04:39:48.044Z,10.37
2023-05-25T04:42:54.071Z,8.97
2023-05-25T04:45:57.899Z,7.93
2023-05-25T04:49:01.172Z,7.40
2023-05-25T04:52:04.580Z,7.37
2023-05-25T04:55:08.773Z,7.47
2023-05-25T04:58:14.566Z,7.10
2023-05-25T05:01:17.997Z,8.40
2023-05-25T05:04:21.262Z,8.63
2023-05-25T05:07:24.531Z,8.10
2023-05-25T05:10:27.688Z,8.40
2023-05-25T05:13:32.193Z,7.60
2023-05-25T05:16:35.627Z,8.50
2023-05-25T05:19:39.086Z,9.87
2023-05-25T05:22:42.221Z,9.00
2023-05-25T05:25:46.506Z,8.07
2023-05-25T05:28:52.715Z,7.70
2023-05-25T05:31:56.401Z,8.93
2023-05-25T05:34:59.828Z,9.70
2023-05-25T05:38:03.051Z,7.87
2023-05-25T05:41:11.374Z,8.43
2023-05-25T05:44:15.910Z,8.70
2023-05-25T05:47:19.084Z,7.50
2023-05-25T05:50:22.611Z,11.03
2023-05-25T05:53:25.697Z,8.03
2023-05-25T05:56:28.979Z,7.03
2023-05-25T05:59:33.970Z,6.17
2023-05-25T06:02:39.342Z,6.80
2023-05-25T06:05:44.270Z,6.67
2023-05-25T06:08:47.796Z,8.27
2023-05-25T06:11:51.553Z,8.17
2023-05-25T06:14:56.100Z,7.47
2023-05-25T06:17:59.326Z,6.77
2023-05-25T06:21:03.099Z,6.10
2023-05-25T06:24:07.338Z,9.13
2023-05-25T06:27:10.525Z,7.57
2023-05-25T06:30:15.340Z,5.77
2023-05-25T06:33:18.765Z,6.00
2023-05-25T06:36:21.955Z,5.60
2023-05-25T06:39:25.128Z,6.40
2023-05-25T06:42:28.311Z,5.87
2023-05-25T06:45:32.816Z,5.13
2023-05-25T06:48:36.051Z,6.17
2023-05-25T06:51:39.267Z,7.17
2023-05-25T06:54:42.385Z,7.03
2023-05-25T06:57:46.086Z,6.50
2023-05-25T07:00:50.763Z,7.60
2023-05-25T07:03:56.312Z,6.60
2023-05-25T07:06:59.597Z,7.43
2023-05-25T07:10:04.561Z,7.53
2023-05-25T07:13:08.762Z,7.30
2023-05-25T07:16:13.318Z,6.10
2023-05-25T07:19:16.513Z,6.93
2023-05-25T07:22:19.914Z,7.50
2023-05-25T07:25:23.092Z,7.00
2023-05-25T07:28:26.224Z,7.10
2023-05-25T07:31:30.801Z,7.10
2023-05-25T07:34:34.825Z,9.00
2023-05-25T07:37:38.030Z,7.17
2023-05-25T07:40:41.171Z,7.63
2023-05-25T07:43:44.296Z,6.97
2023-05-25T07:46:48.809Z,6.63
2023-05-25T07:49:51.971Z,8.13
2023-05-25T07:52:55.099Z,7.05
2023-05-25T07:55:58.285Z,6.95
2023-05-25T07:59:01.454Z,6.75
2023-05-25T08:02:06.811Z,7.13
2023-05-25T08:05:11.288Z,9.07
2023-05-25T08:08:14.744Z,8.07
2023-05-25T08:11:18.400Z,8.10
2023-05-25T08:14:23.656Z,8.07
2023-05-25T08:17:28.228Z,8.93
2023-05-25T08:20:32.661Z,7.40
2023-05-25T08:23:35.862Z,8.00
2023-05-25T08:26:53.671Z,7.60
2023-05-25T08:29:57.385Z,8.77
2023-05-25T08:33:01.923Z,7.80
2023-05-25T08:36:05.491Z,8.40
2023-05-25T08:39:09.323Z,8.57
2023-05-25T08:42:12.698Z,7.57
2023-05-25T08:45:30.446Z,7.40
2023-05-25T08:48:42.390Z,7.07
2023-05-25T08:51:51.055Z,7.10
2023-05-25T08:54:56.448Z,6.27
2023-05-25T08:58:03.933Z,6.87
2023-05-25T09:01:09.471Z,6.03
2023-05-25T09:04:15.002Z,6.63
2023-05-25T09:07:18.852Z,6.80
2023-05-25T09:10:23.407Z,6.53
2023-05-25T09:13:27.409Z,7.27
2023-05-25T09:16:32.830Z,6.80
2023-05-25T09:19:38.634Z,6.50
2023-05-25T09:22:42.450Z,5.50
2023-05-25T09:25:47.349Z,6.73
2023-05-25T09:28:50.652Z,7.77
2023-05-25T09:31:54.753Z,7.37
2023-05-25T09:35:08.430Z,8.90
2023-05-25T09:38:14.169Z,6.53
2023-05-25T09:41:17.576Z,5.83
2023-05-25T09:44:21.144Z,6.50
2023-05-25T09:47:24.390Z,6.23
2023-05-25T09:50:30.854Z,6.70
2023-05-25T09:53:34.071Z,5.80
2023-05-25T09:56:37.712Z,5.60
2023-05-25T09:59:40.884Z,5.60
2023-05-25T10:02:44.055Z,6.00
2023-05-25T10:05:49.104Z,6.20
2023-05-25T10:08:54.038Z,6.63
2023-05-25T10:11:58.818Z,7.97
2023-05-25T10:15:04.588Z,5.73
2023-05-25T10:18:10.321Z,6.07
2023-05-25T10:21:18.526Z,5.67
2023-05-25T10:24:27.999Z,6.57
2023-05-25T10:27:38.883Z,6.03
2023-05-25T10:30:44.164Z,6.50
2023-05-25T10:33:51.980Z,6.40
2023-05-25T10:36:58.328Z,5.87
2023-05-25T10:40:02.524Z,6.73
2023-05-25T10:43:07.368Z,5.40
2023-05-25T10:46:12.204Z,6.17
2023-05-25T10:49:15.331Z,6.50
2023-05-25T10:52:20.843Z,6.20
2023-05-25T10:55:27.966Z,6.53
2023-05-25T10:58:32.393Z,6.60
2023-05-25T11:01:51.785Z,6.23
2023-05-25T11:05:32.497Z,6.20
2023-05-25T11:08:53.181Z,5.93
2023-05-25T11:12:03.820Z,6.40
2023-05-25T11:15:16.520Z,6.23
2023-05-25T11:18:19.793Z,6.10
2023-05-25T11:21:45.130Z,6.43
2023-05-25T11:24:50.063Z,6.83
2023-05-25T11:27:54.346Z,8.03
2023-05-25T11:30:58.184Z,6.80
2023-05-25T11:34:02.644Z,6.30
2023-05-25T11:37:06.193Z,7.33
2023-05-25T11:40:11.971Z,6.67
2023-05-25T11:43:16.412Z,6.90
2023-05-25T11:46:22.283Z,7.13
2023-05-25T11:49:26.222Z,7.67
2023-05-25T11:52:29.754Z,7.40
2023-05-25T11:55:34.383Z,7.13
2023-05-25T11:58:37.559Z,11.07
2023-05-25T12:01:41.556Z,7.10
2023-05-25T12:04:55.243Z,11.33
2023-05-25T12:08:00.923Z,7.10
2023-05-25T12:11:06.182Z,6.20
2023-05-25T12:14:09.842Z,7.23
2023-05-25T12:17:13.199Z,6.50
2023-05-25T12:20:18.494Z,6.33
2023-05-25T12:23:22.124Z,7.20
2023-05-25T12:26:26.995Z,6.70
2023-05-25T12:29:30.505Z,7.13
2023-05-25T12:32:33.742Z,6.93
2023-05-25T12:35:47.522Z,7.63
2023-05-25T12:39:00.101Z,6.93
2023-05-25T12:42:05.083Z,7.17
2023-05-25T12:45:09.263Z,7.57
2023-05-25T12:48:12.843Z,6.20
2023-05-25T12:51:16.019Z,7.43
2023-05-25T12:54:34.072Z,7.30
2023-05-25T12:57:38.630Z,6.83
2023-05-25T13:00:42.172Z,7.37
2023-05-25T13:03:45.320Z,7.23
2023-05-25T13:06:48.491Z,7.50
2023-05-25T13:09:51.744Z,6.83
2023-05-25T13:12:58.511Z,6.80
2023-05-25T13:16:01.915Z,6.90
2023-05-25T13:19:05.043Z,6.90
2023-05-25T13:22:08.171Z,7.20
2023-05-25T13:25:12.131Z,6.50
2023-05-25T13:28:16.835Z,7.33
2023-05-25T13:31:20.074Z,7.20
2023-05-25T13:34:23.161Z,6.50
2023-05-25T13:37:26.645Z,7.00
2023-05-25T13:40:29.822Z,6.60
2023-05-25T13:43:34.361Z,6.77
2023-05-25T13:46:37.760Z,6.90
2023-05-25T13:49:41.032Z,6.80
2023-05-25T13:52:44.213Z,7.07
2023-05-25T13:55:47.916Z,6.27
2023-05-25T13:58:52.394Z,6.67
2023-05-25T14:01:56.650Z,9.47
2023-05-25T14:04:59.853Z,7.03
2023-05-25T14:08:04.981Z,6.87
2023-05-25T14:11:08.252Z,7.60
2023-05-25T14:14:27.069Z,7.53
2023-05-25T14:17:30.604Z,6.90
2023-05-25T14:20:37.221Z,7.40
2023-05-25T14:23:40.489Z,6.90
2023-05-25T14:26:43.820Z,7.13
2023-05-25T14:29:48.745Z,7.53
2023-05-25T14:32:52.227Z,6.50
2023-05-25T14:35:55.667Z,6.57
2023-05-25T14:38:58.803Z,7.23
2023-05-25T14:42:02.577Z,6.97
2023-05-25T14:45:10.938Z,7.30
2023-05-25T14:48:16.585Z,7.00
2023-05-25T14:51:20.183Z,7.23
2023-05-25T14:54:23.356Z,8.90
2023-05-25T14:57:26.502Z,7.40
2023-05-25T15:00:31.228Z,9.10
2023-05-25T15:03:34.416Z,6.00
2023-05-25T15:06:39.333Z,7.93
2023-05-25T15:09:42.950Z,7.30
2023-05-25T15:12:46.097Z,7.07
2023-05-25T15:15:52.122Z,7.37
2023-05-25T15:18:55.478Z,7.90
2023-05-25T15:21:58.689Z,6.30
2023-05-25T15:25:02.694Z,8.00
2023-05-25T15:28:06.915Z,6.40
2023-05-25T15:31:11.440Z,6.57
2023-05-25T15:34:15.839Z,7.70
2023-05-25T15:37:19.006Z,6.47
2023-05-25T15:40:22.181Z,6.13
2023-05-25T15:43:25.380Z,6.57
2023-05-25T15:46:30.059Z,7.07
2023-05-25T15:49:36.812Z,6.93
2023-05-25T15:52:40.129Z,8.90
2023-05-25T15:55:43.447Z,7.03
2023-05-25T15:58:48.983Z,8.00
2023-05-25T16:01:53.617Z,6.77
2023-05-25T16:04:56.791Z,7.70
2023-05-25T16:07:59.965Z,6.37
2023-05-25T16:11:03.125Z,6.27
2023-05-25T16:14:06.515Z,6.90
2023-05-25T16:17:11.663Z,7.17
2023-05-25T16:20:14.919Z,7.03
2023-05-25T16:23:18.126Z,6.53
2023-05-25T16:26:22.577Z,8.23
2023-05-25T16:29:25.852Z,6.27
2023-05-25T16:32:30.490Z,6.37
2023-05-25T16:35:33.797Z,6.80
2023-05-25T16:38:36.996Z,6.90
2023-05-25T16:41:42.938Z,7.20
2023-05-25T16:44:49.005Z,6.80
2023-05-25T16:47:53.629Z,7.00
2023-05-25T16:50:56.801Z,6.93
2023-05-25T16:54:00.067Z,6.43
2023-05-25T16:57:03.264Z,7.60
2023-05-25T17:00:08.221Z,6.50
2023-05-25T17:03:12.933Z,7.77
2023-05-25T17:06:16.260Z,5.93
2023-05-25T17:09:19.432Z,7.60
2023-05-25T17:12:22.620Z,7.67
2023-05-25T17:15:26.071Z,7.27
2023-05-25T17:18:30.649Z,11.90
2023-05-25T17:21:34.987Z,6.57
2023-05-25T17:24:38.675Z,7.00
2023-05-25T17:27:41.884Z,6.93
2023-05-25T17:30:45.034Z,6.43
2023-05-25T17:33:49.614Z,6.57
2023-05-25T17:36:52.771Z,8.47
2023-05-25T17:39:55.899Z,7.17
2023-05-25T17:42:59.123Z,8.27
2023-05-25T17:46:02.358Z,7.53
2023-05-25T17:49:06.971Z,6.50
2023-05-25T17:52:10.537Z,7.40
2023-05-25T17:55:13.705Z,6.87
2023-05-25T17:58:17.082Z,7.50
2023-05-25T18:01:20.450Z,7.73
2023-05-25T18:04:25.099Z,7.70
2023-05-25T18:07:28.301Z,7.33
2023-05-25T18:10:31.429Z,6.90
2023-05-25T18:13:34.620Z,7.03
2023-05-25T18:16:39.794Z,7.57
2023-05-25T18:19:44.417Z,8.83
2023-05-25T18:22:47.585Z,7.70
2023-05-25T18:25:50.780Z,7.70
2023-05-25T18:28:53.938Z,7.20
2023-05-25T18:31:57.076Z,6.93
2023-05-25T18:35:01.657Z,8.07
2023-05-25T18:38:06.227Z,7.73
2023-05-25T18:41:09.517Z,7.80
2023-05-25T18:44:15.813Z,9.20
2023-05-25T18:47:19.339Z,7.97
2023-05-25T18:50:23.963Z,7.57
2023-05-25T18:53:27.162Z,7.40
2023-05-25T18:56:30.368Z,7.97
2023-05-25T18:59:33.819Z,6.57
2023-05-25T19:02:40.668Z,7.97
2023-05-25T19:05:45.504Z,7.83
2023-05-25T19:08:49.646Z,7.77
2023-05-25T19:11:52.944Z,8.57
2023-05-25T19:14:56.156Z,8.03
2023-05-25T19:17:59.386Z,8.20
2023-05-25T19:21:04.012Z,7.73
2023-05-25T19:24:09.852Z,7.90
2023-05-25T19:27:16.178Z,9.03
2023-05-25T19:30:19.561Z,7.70
2023-05-25T19:33:22.861Z,7.80
2023-05-25T19:36:27.443Z,8.27
2023-05-25T19:39:31.738Z,7.93
2023-05-25T19:42:34.865Z,7.73
2023-05-25T19:45:40.850Z,9.57
2023-05-25T19:48:44.202Z,9.23
2023-05-25T19:51:48.862Z,8.67
2023-05-25T19:54:52.096Z,9.53
2023-05-25T19:57:55.422Z,13.33
2023-05-25T20:00:58.768Z,10.83
2023-05-25T20:04:02.161Z,11.93
2023-05-25T20:07:09.716Z,8.00
2023-05-25T20:10:13.059Z,8.20
2023-05-25T20:13:16.180Z,8.33
2023-05-25T20:16:19.379Z,8.53
2023-05-25T20:19:23.448Z,7.77
2023-05-25T20:22:28.547Z,8.80
2023-05-25T20:25:31.718Z,7.50
2023-05-25T20:28:34.844Z,10.33
2023-05-25T20:31:38.056Z,13.30
2023-05-25T20:34:41.260Z,9.10
2023-05-25T20:37:46.045Z,8.53
2023-05-25T20:40:49.203Z,11.13
2023-05-25T20:43:52.418Z,7.77
2023-05-25T20:46:55.567Z,9.30
2023-05-25T20:49:58.779Z,7.00
2023-05-25T20:53:03.345Z,8.43
2023-05-25T20:56:06.639Z,9.13
2023-05-25T20:59:09.859Z,8.30
2023-05-25T21:02:13.054Z,8.73
2023-05-25T21:05:17.402Z,9.40
2023-05-25T21:08:23.205Z,8.40
2023-05-25T21:11:26.803Z,10.17
2023-05-25T21:14:29.924Z,8.30
2023-05-25T21:17:33.066Z,7.83
2023-05-25T21:20:36.409Z,7.87
2023-05-25T21:23:40.982Z,8.30
2023-05-25T21:26:44.080Z,7.47
2023-05-25T21:29:50.075Z,7.90
2023-05-25T21:32:53.253Z,8.20
2023-05-25T21:35:56.425Z,8.00
2023-05-25T21:39:00.958Z,8.40
2023-05-25T21:42:04.216Z,7.53
2023-05-25T21:45:08.455Z,10.73
2023-05-25T21:48:12.094Z,7.60
2023-05-25T21:51:18.172Z,8.03
2023-05-25T21:54:24.069Z,7.63
2023-05-25T21:57:27.416Z,7.00
2023-05-25T22:00:30.794Z,8.20
2023-05-25T22:03:34.225Z,7.47
2023-05-25T22:06:37.787Z,8.40
2023-05-25T22:09:42.479Z,7.87
2023-05-25T22:12:46.007Z,7.90
2023-05-25T22:15:49.751Z,7.93
2023-05-25T22:18:53.038Z,8.03
2023-05-25T22:21:56.344Z,8.43
2023-05-25T22:25:01.269Z,11.60
2023-05-25T22:28:04.599Z,7.50
2023-05-25T22:31:07.904Z,8.77
2023-05-25T22:34:11.381Z,8.07
2023-05-25T22:37:14.628Z,7.97
2023-05-25T22:40:19.562Z,8.60
2023-05-25T22:43:22.798Z,9.10
2023-05-25T22:46:26.237Z,7.70
2023-05-25T22:49:29.538Z,8.50
2023-05-25T22:52:32.795Z,8.10
2023-05-25T22:55:37.405Z,8.03
2023-05-25T22:58:43.569Z,9.23
2023-05-25T23:01:46.862Z,9.07
2023-05-25T23:04:50.148Z,8.83
2023-05-25T23:07:53.706Z,8.93
2023-05-25T23:10:58.404Z,10.83
2023-05-25T23:14:01.852Z,9.03
2023-05-25T23:17:05.243Z,9.43
2023-05-25T23:20:10.636Z,8.83
2023-05-25T23:23:14.133Z,8.90
2023-05-25T23:26:18.785Z,10.27
2023-05-25T23:29:22.164Z,9.90
2023-05-25T23:32:25.420Z,9.90
2023-05-25T23:35:28.884Z,10.30
2023-05-25T23:38:32.316Z,9.50
2023-05-25T23:41:40.016Z,10.80
2023-05-25T23:44:43.348Z,8.67
2023-05-25T23:47:46.640Z,9.57
2023-05-25T23:50:49.902Z,9.23
2023-05-25T23:53:53.475Z,8.97
2023-05-25T23:56:58.117Z,8.90
